Flight Track Log - Related Links

Times and Time Zones

All times are in EDT time to prevent confusion due to time zone crossing. See the SWA1464 flight status page for this flight to view local times or setup timezone preferences in your user account.

Time Position Orientation Groundspeed Altitude Reporting Facility
EDT Latitude Longitude Course Direction KTS MPH feet Rate Location/Type
Sun 09:59:53 AM 39.3167 -94.7167 322° Northwest 183 211 1,500  Level Kansas City TRACON
Sun 10:00:41 AM 39.3500 -94.7500 322° Northwest 173 199 3,800 2,586 Climbing Kansas City TRACON
Sun 10:01:49 AM 39.2917 -94.7833 204° Southwest 248 285 6,500 2,484 Climbing Kansas City Center
Sun 10:02:49 AM 39.2122 -94.7803 178° South 295 339 9,100 2,488 Climbing Kansas City Center
Sun 10:03:52 AM 39.1108 -94.7494 167° South 337 388 11,600 2,585 Climbing Kansas City Center
Sun 10:04:52 AM 39.0100 -94.7183 167° South 377 434 14,400 2,927 Climbing Kansas City Center
Sun 10:05:55 AM 38.8950 -94.6822 166° South 384 442 17,600 2,371 Climbing Kansas City Center
Sun 10:06:56 AM 38.7922 -94.6508 167° South 393 452 19,300 1,854 Climbing Kansas City Center
Sun 10:07:58 AM 38.6861 -94.6169 166° South 407 468 21,400 1,967 Climbing Kansas City Center
Sun 10:08:58 AM 38.5600 -94.5775 166° South 415 478 23,300 1,686 Climbing Kansas City Center
Sun 10:09:59 AM 38.4500 -94.5353 163° South 429 494 24,800 1,536 Climbing Kansas City Center
Sun 10:11:03 AM 38.3625 -94.3950 128° Southeast 450 518 26,500 1,355 Climbing Kansas City Center
Sun 10:12:03 AM 38.2889 -94.2669 126° Southeast 460 529 27,600 1,488 Climbing Kansas City Center
Sun 10:13:04 AM 38.2153 -94.1392 126° Southeast 466 536 29,500 1,355 Climbing Kansas City Center
Sun 10:14:07 AM 38.1331 -93.9989 127° Southeast 460 529 30,400 864 Climbing Kansas City Center
Sun 10:15:09 AM 38.0539 -93.8647 127° Southeast 470 541 31,300 900 Climbing Kansas City Center
Sun 10:16:07 AM 37.9733 -93.7281 127° Southeast 479 551 32,200 1,426 Climbing Kansas City Center
Sun 10:17:11 AM 37.8942 -93.5944 127° Southeast 477 549 34,200 1,333 Climbing Kansas City Center
Sun 10:18:13 AM 37.8208 -93.4692 127° Southeast 452 520 35,000 390 Climbing Kansas City Center
Sun 10:19:14 AM 37.7281 -93.3142 127° Southeast 459 528 35,000  Level Kansas City Center
Sun 10:20:14 AM 37.6506 -93.1836 127° Southeast 464 534 35,000  Level Kansas City Center
Sun 10:21:15 AM 37.5708 -93.0536 128° Southeast 467 537 35,000  Level Kansas City Center
Sun 10:22:18 AM 37.4936 -92.9242 127° Southeast 466 536 35,000  Level Kansas City Center
Sun 10:23:19 AM 37.4181 -92.7981 127° Southeast 458 527 35,000  Level Kansas City Center
Sun 10:24:19 AM 37.3431 -92.6747 127° Southeast 450 518 35,000  Level Kansas City Center
Sun 10:25:22 AM 37.2692 -92.5542 128° Southeast 442 509 35,000  Level Kansas City Center
Sun 10:26:24 AM 37.1953 -92.4347 128° Southeast 438 504 35,000  Level Kansas City Center
Sun 10:27:26 AM 37.1072 -92.2906 127° Southeast 435 501 35,000  Level Kansas City Center
Sun 10:28:28 AM 37.0336 -92.1719 128° Southeast 433 498 35,000  Level Kansas City Center
Sun 10:29:29 AM 36.9583 -92.0511 128° Southeast 437 503 35,000  Level Kansas City Center
Sun 10:30:30 AM 36.8847 -91.9314 128° Southeast 437 503 35,000  Level Kansas City Center
Sun 10:31:32 AM 36.8100 -91.8119 128° Southeast 435 501 35,000  Level Kansas City Center
Sun 10:32:33 AM 36.7356 -91.6911 128° Southeast 438 504 35,000  Level Kansas City Center
Sun 10:33:33 AM 36.6619 -91.5719 128° Southeast 435 501 35,000  Level Kansas City Center
Sun 10:34:06 AM 36.6161 -91.5072 131° Southeast 437 503 35,000  Level Memphis Center
Sun 10:35:06 AM 36.5358 -91.3797 128° Southeast 437 503 35,000  Level Memphis Center
Sun 10:36:06 AM 36.4681 -91.2756 129° Southeast 431 496 35,000  Level Memphis Center
Sun 10:37:06 AM 36.3958 -91.1614 128° Southeast 426 490 35,000  Level Memphis Center
Sun 10:38:06 AM 36.3256 -91.0472 127° Southeast 426 490 35,000  Level Memphis Center
Sun 10:39:06 AM 36.2511 -90.9336 129° Southeast 426 490 35,000  Level Memphis Center
Sun 10:40:06 AM 36.1808 -90.8225 128° Southeast 426 490 35,000  Level Memphis Center
Sun 10:41:06 AM 36.1061 -90.7089 129° Southeast 426 490 35,000  Level Memphis Center
Sun 10:42:06 AM 36.0353 -90.5983 128° Southeast 426 490 35,000  Level Memphis Center
Sun 10:43:06 AM 35.9647 -90.4878 128° Southeast 426 490 35,000  Level Memphis Center
Sun 10:44:06 AM 35.8939 -90.3775 128° Southeast 419 482 35,000  Level Memphis Center
Sun 10:45:06 AM 35.8186 -90.2647 129° Southeast 419 482 35,000  Level Memphis Center
Sun 10:46:06 AM 35.7456 -90.1550 129° Southeast 424 488 35,000  Level Memphis Center
Sun 10:47:06 AM 35.6722 -90.0300 126° Southeast 424 488 35,000 -850 Level Memphis Center
Sun 10:48:06 AM 35.5989 -89.9178 129° Southeast 419 482 33,300 -2,000 Descending Memphis Center
Sun 10:49:06 AM 35.5233 -89.8036 129° Southeast 424 488 31,000 -1,150 Descending Memphis Center
Sun 10:50:06 AM 35.4456 -89.6867 129° Southeast 432 497 31,000  Level Memphis Center
Sun 10:51:06 AM 35.3678 -89.5678 129° Southeast 437 503 31,000  Level Memphis Center
Sun 10:52:06 AM 35.2897 -89.4514 129° Southeast 442 509 31,000  Level Memphis Center
Sun 10:53:06 AM 35.2222 -89.3481 129° Southeast 442 509 31,000  Level Memphis Center
Sun 10:54:06 AM 35.1400 -89.2322 131° Southeast 447 514 31,000  Level Memphis Center
Sun 10:55:06 AM 35.0636 -89.1139 128° Southeast 447 514 31,000  Level Memphis Center
Sun 10:56:06 AM 34.9853 -89.0011 130° Southeast 447 514 31,000  Level Memphis Center
Sun 10:57:06 AM 34.9067 -88.8858 130° Southeast 447 514 31,000  Level Memphis Center
Sun 10:58:06 AM 34.8217 -88.7583 129° Southeast 442 509 31,000  Level Memphis Center
Sun 10:59:06 AM 34.7431 -88.6461 130° Southeast 442 509 31,000  Level Memphis Center
Sun 11:00:06 AM 34.6642 -88.5342 131° Southeast 437 503 31,000  Level Memphis Center
Sun 11:01:06 AM 34.5961 -88.4372 130° Southeast 432 497 31,000  Level Memphis Center
Sun 11:02:06 AM 34.5067 -88.3333 136° Southeast 432 497 31,000  Level Memphis Center
Sun 11:03:06 AM 34.4133 -88.2450 142° Southeast 425 489 31,000  Level Memphis Center
Sun 11:04:06 AM 34.3053 -88.1394 141° Southeast 441 507 31,000  Level Memphis Center
Sun 11:05:06 AM 34.2117 -88.0514 142° Southeast 441 507 31,000  Level Memphis Center
Sun 11:06:41 AM 34.0633 -87.9078 141° Southeast 434 499 31,000  Level Atlanta Center
Sun 11:07:41 AM 33.9875 -87.7917 128° Southeast 434 499 31,000  Level Atlanta Center
Sun 11:08:41 AM 33.9075 -87.6756 130° Southeast 434 499 31,000  Level Atlanta Center
Sun 11:09:41 AM 33.8294 -87.5622 130° Southeast 440 506 31,000  Level Atlanta Center
Sun 11:10:41 AM 33.7556 -87.4467 128° Southeast 440 506 31,000  Level Atlanta Center
Sun 11:11:41 AM 33.6772 -87.3289 129° Southeast 440 506 31,000  Level Atlanta Center
Sun 11:12:41 AM 33.5989 -87.2161 130° Southeast 440 506 31,000  Level Atlanta Center
Sun 11:13:41 AM 33.5222 -87.1061 130° Southeast 440 506 31,000  Level Atlanta Center
Sun 11:14:41 AM 33.4458 -86.9889 128° Southeast 440 506 31,000  Level Atlanta Center
Sun 11:15:41 AM 33.3692 -86.8769 129° Southeast 440 506 31,000  Level Atlanta Center
Sun 11:16:41 AM 33.3064 -86.7878 130° Southeast 440 506 31,000  Level Atlanta Center
Sun 11:17:41 AM 33.2258 -86.6636 128° Southeast 440 506 31,000  Level Atlanta Center
Sun 11:18:41 AM 33.1467 -86.5497 130° Southeast 440 506 31,000  Level Atlanta Center
Sun 11:19:41 AM 33.0694 -86.4383 130° Southeast 440 506 31,000  Level Atlanta Center
Sun 11:20:41 AM 32.9944 -86.3272 129° Southeast 435 501 31,000  Level Atlanta Center
Sun 11:21:41 AM 32.9150 -86.2189 131° Southeast 430 495 31,000  Level Atlanta Center
Sun 11:22:41 AM 32.8356 -86.1031 129° Southeast 442 509 31,000  Level Atlanta Center
Sun 11:23:41 AM 32.7581 -85.9903 129° Southeast 442 509 31,000  Level Atlanta Center
Sun 11:24:41 AM 32.6783 -85.8772 130° Southeast 442 509 31,000  Level Atlanta Center
Sun 11:25:41 AM 32.5986 -85.7647 130° Southeast 442 509 31,000  Level Atlanta Center
Sun 11:26:41 AM 32.5125 -85.6447 130° Southeast 435 501 31,000  Level Atlanta Center
Sun 11:27:41 AM 32.4306 -85.5303 130° Southeast 441 507 31,000  Level Atlanta Center
Sun 11:28:41 AM 32.3506 -85.4181 130° Southeast 441 507 31,000  Level Atlanta Center
Sun 11:29:41 AM 32.2703 -85.3064 130° Southeast 436 502 31,000  Level Atlanta Center
Sun 11:30:41 AM 32.1919 -85.1947 130° Southeast 436 502 31,000  Level Atlanta Center
Sun 11:31:41 AM 32.1094 -85.0908 133° Southeast 436 502 31,000  Level Atlanta Center
Sun 11:32:41 AM 32.0289 -84.9772 130° Southeast 436 502 31,000  Level Atlanta Center
Sun 11:35:10 AM 31.8361 -84.7094 130° Southeast 448 516 31,000  Level Jacksonville Center
Sun 11:36:10 AM 31.7564 -84.5956 129° Southeast 443 510 31,000  Level Jacksonville Center
Sun 11:37:10 AM 31.6742 -84.4867 132° Southeast 443 510 31,000  Level Jacksonville Center
Sun 11:38:10 AM 31.5919 -84.3781 132° Southeast 438 504 31,000  Level Jacksonville Center
Sun 11:39:10 AM 31.5097 -84.2644 130° Southeast 438 504 31,000  Level Jacksonville Center
Sun 11:40:10 AM 31.4294 -84.1539 130° Southeast 438 504 31,000  Level Jacksonville Center
Sun 11:41:10 AM 31.3367 -84.0308 131° Southeast 444 511 31,000  Level Jacksonville Center
Sun 11:42:10 AM 31.2561 -83.9206 130° Southeast 444 511 31,000  Level Jacksonville Center
Sun 11:43:10 AM 31.1756 -83.8103 130° Southeast 444 511 31,000  Level Jacksonville Center
Sun 11:44:10 AM 31.0908 -83.6981 131° Southeast 444 511 31,000  Level Jacksonville Center
Sun 11:45:11 AM 31.0081 -83.5858 131° Southeast 449 517 31,000  Level Jacksonville Center
Sun 11:46:10 AM 30.9269 -83.4739 130° Southeast 449 517 31,000  Level Jacksonville Center
Sun 11:47:10 AM 30.8439 -83.3644 131° Southeast 449 517 31,000  Level Jacksonville Center
Sun 11:48:10 AM 30.7711 -83.2672 131° Southeast 449 517 31,000 -1,050 Level Jacksonville Center
Sun 11:49:10 AM 30.6756 -83.1703 139° Southeast 449 517 28,900 -2,000 Descending Jacksonville Center
Sun 11:50:10 AM 30.5817 -83.0736 138° Southeast 454 522 27,000 -950 Descending Jacksonville Center
Sun 11:51:10 AM 30.4919 -82.9794 138° Southeast 449 517 27,000 -400 Level Jacksonville Center
Sun 11:52:10 AM 30.4022 -82.8878 139° Southeast 437 503 26,200 -800 Descending Jacksonville Center
Sun 11:53:10 AM 30.3125 -82.7964 139° Southeast 437 503 25,400 -600 Descending Jacksonville Center
Sun 11:54:10 AM 30.2225 -82.7028 138° Southeast 437 503 25,000 -198 Descending Jacksonville Center
Sun 11:55:11 AM 30.1200 -82.6044 140° Southeast 437 503 25,000  Level Jacksonville Center
Sun 11:56:10 AM 30.0322 -82.5136 138° Southeast 437 503 25,000  Level Jacksonville Center
Sun 11:57:11 AM 29.9422 -82.4419 145° Southeast 437 503 25,000  Level Jacksonville Center
Sun 11:58:10 AM 29.8292 -82.3994 162° South 426 490 25,000  Level Jacksonville Center
Sun 11:59:10 AM 29.7225 -82.3425 155° Southeast 426 490 25,000 -694 Level Jacksonville Center
Sun 12:00:11 PM 29.6136 -82.2906 157° South 426 490 23,600 -1,636 Descending Jacksonville Center
Sun 12:01:11 PM 29.5069 -82.2386 157° South 421 484 21,700 -1,966 Descending Jacksonville Center
Sun 12:02:10 PM 29.4044 -82.1869 156° South 411 473 19,700 -1,950 Descending Jacksonville Center
Sun 12:03:11 PM 29.3061 -82.1400 157° South 399 459 17,800 -1,900 Descending Jacksonville Center
Sun 12:04:10 PM 29.2078 -82.0931 157° South 392 451 15,900 -1,966 Descending Jacksonville Center
Sun 12:05:10 PM 29.1114 -82.0442 156° South 387 445 13,900 -1,934 Descending Jacksonville Center
Sun 12:06:11 PM 29.0192 -81.9997 157° South 373 429 12,000 -1,450 Descending Jacksonville Center
Sun 12:07:10 PM 28.9292 -81.9556 157° South 363 418 11,000 -504 Descending Jacksonville Center
Sun 12:08:10 PM 28.8661 -81.9039 144° Southeast 331 381 11,000  Level Jacksonville Center
Sun 12:09:11 PM 28.8239 -81.8308 123° Southeast 280 322 11,000 -500 Level Jacksonville Center
Sun 12:09:46 PM 28.8000 -81.7667 113° Southeast 286 329 10,200 -1,263 Descending Orlando TRACON
Sun 12:10:46 PM 28.7833 -81.6833 103° East 279 321 9,000 -650 Descending Orlando TRACON
Sun 12:11:46 PM 28.7667 -81.6000 103° East 265 305 8,900 -684 Descending Orlando TRACON
Sun 12:12:40 PM 28.7667 -81.5333 90° East 228 262 7,700 -1,450 Descending Orlando TRACON
Sun 12:13:46 PM 28.7333 -81.4667 120° Southeast 228 262 6,000 -1,450 Descending Orlando TRACON
Sun 12:14:40 PM 28.7167 -81.4000 106° East 227 261 4,800 -1,381 Descending Orlando TRACON
Sun 12:15:52 PM 28.6667 -81.3333 131° Southeast 227 261 3,100 -952 Descending Orlando TRACON
Sun 12:16:46 PM 28.6333 -81.3000 139° Southeast 186 214 2,800 -350 Descending Orlando TRACON
Sun 12:17:52 PM 28.5667 -81.2833 168° South 190 219 2,400 -571 Descending Orlando TRACON
Sun 12:18:52 PM 28.5167 -81.2833 180° South 177 204 1,600 -750 Descending Orlando TRACON
Sun 12:19:52 PM 28.4833 -81.2833 180° South 141 162 900 -700 Descending Orlando TRACON
Sun 12:21:00 PM 28.4294 -81.3090 215° Southwest  Level Estimated
Sun 12:28:00 PM 28.4294 -81.3090 24° Northeast  Level Estimated
Sun 12:29:00 PM 28.4294 -81.3090 24° Northeast  Level Estimated
Sun 12:30:00 PM 28.4294 -81.3090 24° Northeast  Level Estimated
Sun 12:31:00 PM 28.4294 -81.3090 24° Northeast  Level Estimated

Login

Don't have an account? Register now (free) for customized features, flight alerts, and more!